Time;durP1;ratioP1;P1;durP2;ratioP2;P2;SDS_P1;SDS_P2;PMS_P1;PMS_P2;Temp;Humidity;BMP_temperature;BMP_pressure;BME280_temperature;BME280_humidity;BME280_pressure;Samples;Min_cycle;Max_cycle;Signal;HPM_P1;HPM_P2
2022/08/26 00:01:26;;;;;;;0.40;0.30;;;19.90;99.90;;;;;;5035538;28;20466;-75
2022/08/26 00:03:52;;;;;;;0.40;0.30;;;19.90;99.90;;;;;;5035158;28;20469;-76
2022/08/26 00:06:18;;;;;;;0.40;0.30;;;19.90;99.90;;;;;;5035776;28;20379;-77
2022/08/26 00:08:43;;;;;;;0.40;0.30;;;19.90;99.90;;;;;;5017610;28;20386;-76
2022/08/26 00:11:09;;;;;;;0.50;0.50;;;20.10;99.90;;;;;;5034678;28;20427;-76
2022/08/26 00:13:36;;;;;;;0.40;0.30;;;19.90;99.90;;;;;;5035407;28;20442;-77
2022/08/26 00:16:04;;;;;;;0.40;0.20;;;19.90;99.90;;;;;;5035331;28;20488;-76
2022/08/26 00:18:30;;;;;;;0.40;0.30;;;19.80;99.90;;;;;;5036344;28;20393;-76
2022/08/26 00:20:55;;;;;;;0.47;0.45;;;19.90;99.90;;;;;;5036604;28;20422;-77
2022/08/26 00:23:21;;;;;;;0.40;0.20;;;19.80;99.90;;;;;;5037700;28;20383;-77
2022/08/26 00:25:47;;;;;;;0.40;0.30;;;19.90;99.90;;;;;;5024551;28;21037;-76
2022/08/26 00:28:13;;;;;;;0.40;0.30;;;19.80;99.90;;;;;;5023554;28;20406;-77
2022/08/26 00:30:39;;;;;;;0.40;0.30;;;19.80;99.90;;;;;;5048588;28;20426;-77
2022/08/26 00:33:05;;;;;;;0.40;0.20;;;19.80;99.90;;;;;;5049515;28;20908;-76
2022/08/26 00:35:31;;;;;;;0.40;0.30;;;19.90;99.90;;;;;;5029848;28;20409;-77
2022/08/26 00:37:57;;;;;;;0.40;0.30;;;19.80;99.90;;;;;;5032981;28;20401;-77
2022/08/26 00:40:27;;;;;;;0.40;0.30;;;19.90;99.90;;;;;;5023416;28;20433;-77
2022/08/26 00:42:53;;;;;;;0.40;0.30;;;19.90;99.90;;;;;;5028795;28;20593;-77
2022/08/26 00:45:20;;;;;;;0.70;0.60;;;19.90;99.90;;;;;;5033981;28;20492;-77
2022/08/26 00:48:06;;;;;;;0.50;0.50;;;19.90;99.90;;;;;;5044523;28;20883;-77
2022/08/26 00:50:48;;;;;;;0.40;0.20;;;19.90;99.90;;;;;;5040089;28;20465;-77
2022/08/26 00:53:20;;;;;;;0.40;0.30;;;19.90;99.90;;;;;;5046666;28;20411;-76
2022/08/26 00:56:07;;;;;;;0.40;0.30;;;19.80;99.90;;;;;;5025923;28;20472;-77
2022/08/26 00:58:35;;;;;;;0.40;0.20;;;19.70;99.90;;;;;;5048278;28;20401;-77
2022/08/26 01:01:01;;;;;;;0.80;0.70;;;19.80;99.90;;;;;;5048967;28;20397;-76
2022/08/26 01:03:29;;;;;;;0.40;0.30;;;19.80;99.90;;;;;;5027647;28;20740;-76
2022/08/26 01:05:59;;;;;;;0.40;0.30;;;19.80;99.90;;;;;;5045727;28;20519;-77
2022/08/26 01:08:25;;;;;;;0.40;0.30;;;19.80;99.90;;;;;;5027894;28;20431;-76
2022/08/26 01:10:51;;;;;;;0.90;0.90;;;19.70;99.90;;;;;;5045081;28;20405;-76
2022/08/26 01:13:17;;;;;;;0.40;0.22;;;19.70;99.90;;;;;;5044947;28;20893;-77
2022/08/26 01:15:46;;;;;;;0.70;0.70;;;19.80;99.90;;;;;;5045719;28;20964;-76
2022/08/26 01:18:14;;;;;;;0.40;0.30;;;19.70;99.90;;;;;;5028472;28;20841;-77
2022/08/26 01:20:58;;;;;;;0.40;0.20;;;19.60;99.90;;;;;;5027357;28;20393;-77
2022/08/26 01:23:27;;;;;;;0.40;0.30;;;19.60;99.90;;;;;;5025737;28;20482;-77
2022/08/26 01:25:59;;;;;;;0.40;0.30;;;19.50;99.90;;;;;;5045617;28;20370;-77
2022/08/26 01:28:28;;;;;;;0.40;0.40;;;19.50;99.90;;;;;;5044348;28;20454;-77
2022/08/26 01:30:56;;;;;;;0.40;0.30;;;19.40;99.90;;;;;;5038171;28;20439;-77
2022/08/26 01:33:27;;;;;;;0.40;0.30;;;19.40;99.90;;;;;;5046210;28;20421;-77
2022/08/26 01:35:53;;;;;;;0.40;0.30;;;19.30;99.90;;;;;;5054866;23;20508;-74
2022/08/26 01:38:19;;;;;;;1.10;0.60;;;19.30;99.90;;;;;;5070530;28;20821;-74
2022/08/26 01:40:45;;;;;;;0.70;0.70;;;19.30;99.90;;;;;;5063801;28;20376;-74
2022/08/26 01:43:17;;;;;;;0.40;0.20;;;19.20;99.90;;;;;;5054216;28;20750;-74
2022/08/26 01:45:45;;;;;;;0.40;0.30;;;19.20;99.90;;;;;;5072209;28;20746;-74
2022/08/26 01:48:14;;;;;;;0.50;0.40;;;19.30;99.90;;;;;;5072083;28;20406;-75
2022/08/26 01:50:42;;;;;;;0.40;0.40;;;19.20;99.90;;;;;;5072116;28;20466;-74
2022/08/26 01:53:11;;;;;;;0.40;0.30;;;19.10;99.90;;;;;;5071480;28;20379;-74
2022/08/26 01:55:40;;;;;;;0.40;0.20;;;19.10;99.90;;;;;;5071761;28;20408;-74
2022/08/26 01:58:12;;;;;;;0.40;0.30;;;19.10;99.90;;;;;;5071657;28;20885;-75
2022/08/26 02:00:38;;;;;;;0.40;0.30;;;19.00;99.90;;;;;;5071847;28;20408;-74
2022/08/26 02:03:17;;;;;;;0.40;0.30;;;19.00;99.90;;;;;;5071277;28;20786;-73
2022/08/26 02:05:51;;;;;;;0.40;0.30;;;19.10;99.90;;;;;;5071050;28;20425;-74
2022/08/26 02:08:18;;;;;;;0.40;0.20;;;19.10;99.90;;;;;;5071497;28;20371;-74
2022/08/26 02:10:44;;;;;;;0.40;0.30;;;19.00;99.90;;;;;;5071484;28;20410;-73
2022/08/26 02:13:10;;;;;;;0.40;0.20;;;19.00;99.90;;;;;;5070141;28;20380;-74
2022/08/26 02:15:39;;;;;;;0.60;0.40;;;18.90;99.90;;;;;;5071021;28;20403;-73
2022/08/26 02:18:05;;;;;;;0.40;0.20;;;18.90;99.90;;;;;;5071343;28;20415;-74
2022/08/26 02:20:30;;;;;;;0.40;0.20;;;18.90;99.90;;;;;;5071051;28;20835;-73
2022/08/26 02:22:56;;;;;;;0.50;0.40;;;18.90;99.90;;;;;;5053114;28;20437;-73
2022/08/26 02:25:28;;;;;;;0.40;0.30;;;18.80;99.90;;;;;;5071209;28;20399;-74
2022/08/26 02:27:55;;;;;;;0.40;0.20;;;18.80;99.90;;;;;;5071418;28;20453;-74
2022/08/26 02:30:27;;;;;;;0.40;0.30;;;18.80;99.90;;;;;;5036442;28;20439;-74
2022/08/26 02:32:53;;;;;;;0.40;0.20;;;18.90;99.90;;;;;;5060769;28;20464;-74
2022/08/26 02:35:22;;;;;;;0.40;0.20;;;18.80;99.90;;;;;;5056268;28;20449;-74
2022/08/26 02:37:48;;;;;;;0.40;0.30;;;18.80;99.90;;;;;;5058004;28;20602;-74
2022/08/26 02:40:16;;;;;;;0.50;0.40;;;18.70;99.90;;;;;;5056683;28;20393;-73
2022/08/26 02:42:42;;;;;;;0.40;0.30;;;18.70;99.90;;;;;;5049784;28;21137;-74
2022/08/26 02:45:09;;;;;;;0.40;0.20;;;18.60;99.90;;;;;;5057895;28;20417;-74
2022/08/26 02:47:36;;;;;;;0.40;0.30;;;18.60;99.90;;;;;;5058344;28;20800;-74
2022/08/26 02:50:02;;;;;;;0.40;0.20;;;18.60;99.90;;;;;;5058810;28;20386;-74
2022/08/26 02:52:28;;;;;;;0.50;0.40;;;18.60;99.90;;;;;;5032716;28;20390;-74
2022/08/26 02:54:54;;;;;;;0.50;0.40;;;18.50;99.90;;;;;;5050618;28;20416;-74
2022/08/26 02:57:19;;;;;;;0.40;0.20;;;18.50;99.90;;;;;;5050690;28;20420;-74
2022/08/26 02:59:45;;;;;;;0.40;0.40;;;18.50;99.90;;;;;;5053258;28;20423;-73
2022/08/26 03:02:11;;;;;;;0.40;0.20;;;18.50;99.90;;;;;;5060512;28;20381;-74
2022/08/26 03:04:38;;;;;;;0.40;0.20;;;18.60;99.90;;;;;;5070980;28;20406;-73
2022/08/26 03:07:04;;;;;;;0.40;0.20;;;18.60;99.90;;;;;;5070811;28;20427;-74
2022/08/26 03:09:31;;;;;;;1.05;1.05;;;18.50;99.90;;;;;;5070493;28;20387;-74
2022/08/26 03:11:57;;;;;;;0.40;0.20;;;18.60;99.90;;;;;;5070626;28;20757;-74
2022/08/26 03:14:23;;;;;;;0.40;0.20;;;18.60;99.90;;;;;;5069843;28;20388;-74
2022/08/26 03:16:53;;;;;;;0.40;0.30;;;18.60;99.90;;;;;;5070062;28;20384;-74
2022/08/26 03:19:20;;;;;;;0.40;0.20;;;18.50;99.90;;;;;;5070525;28;20372;-74
2022/08/26 03:21:45;;;;;;;0.90;0.70;;;18.60;99.90;;;;;;5070499;28;20406;-73
2022/08/26 03:24:11;;;;;;;0.40;0.40;;;18.60;99.90;;;;;;5070034;28;20380;-74
2022/08/26 03:26:37;;;;;;;0.40;0.30;;;18.50;99.90;;;;;;5070573;28;20480;-74
2022/08/26 03:31:48;;;;;;;0.50;0.50;;;18.60;99.90;;;;;;5070385;28;20463;-74
2022/08/26 03:34:14;;;;;;;0.60;0.60;;;18.60;99.90;;;;;;5051996;28;20490;-73
2022/08/26 03:36:40;;;;;;;0.50;0.50;;;18.50;99.90;;;;;;5070193;28;20396;-73
2022/08/26 03:39:06;;;;;;;0.50;0.50;;;18.40;99.90;;;;;;5052155;28;20445;-74
2022/08/26 03:41:36;;;;;;;0.40;0.20;;;18.40;99.90;;;;;;5070026;28;20376;-74
2022/08/26 03:44:07;;;;;;;0.40;0.22;;;18.40;99.90;;;;;;5069932;28;20382;-74
2022/08/26 03:46:33;;;;;;;0.40;0.20;;;18.30;99.90;;;;;;5070083;28;20388;-73
2022/08/26 03:49:00;;;;;;;0.40;0.20;;;18.30;99.90;;;;;;5070170;28;20758;-74
2022/08/26 03:51:26;;;;;;;0.40;0.30;;;18.40;99.90;;;;;;5051532;28;20792;-74
2022/08/26 03:53:52;;;;;;;0.40;0.30;;;18.30;99.90;;;;;;5070573;28;20396;-74
2022/08/26 03:56:17;;;;;;;0.40;0.30;;;18.20;99.90;;;;;;5073890;28;20423;-74
2022/08/26 03:58:43;;;;;;;0.40;0.30;;;18.10;99.90;;;;;;5074168;28;20375;-74
2022/08/26 04:01:10;;;;;;;0.45;0.40;;;18.00;99.90;;;;;;5073263;28;20384;-73
2022/08/26 04:06:20;;;;;;;0.40;0.30;;;18.20;99.90;;;;;;5072437;28;20394;-74
2022/08/26 04:08:46;;;;;;;0.40;0.30;;;18.10;99.90;;;;;;5060645;28;20476;-73
2022/08/26 04:11:20;;;;;;;0.40;0.30;;;18.20;99.90;;;;;;5054010;28;20745;-73
2022/08/26 04:13:46;;;;;;;0.40;0.30;;;18.20;99.90;;;;;;5053465;28;20447;-73
2022/08/26 04:16:12;;;;;;;0.40;0.30;;;18.10;99.90;;;;;;5035430;28;20458;-73
2022/08/26 04:18:38;;;;;;;0.50;0.40;;;18.00;99.90;;;;;;5053644;28;20719;-74
2022/08/26 04:21:08;;;;;;;0.70;0.70;;;18.10;99.90;;;;;;5049121;28;20385;-73
2022/08/26 04:23:34;;;;;;;0.40;0.30;;;18.00;99.90;;;;;;5053268;28;20396;-73
2022/08/26 04:26:01;;;;;;;0.50;0.40;;;18.00;99.90;;;;;;5053569;28;20396;-73
2022/08/26 04:28:27;;;;;;;0.40;0.40;;;18.00;99.90;;;;;;5053671;28;20392;-73
2022/08/26 04:30:53;;;;;;;0.40;0.20;;;18.00;99.90;;;;;;5053557;28;20401;-74
2022/08/26 04:33:20;;;;;;;0.40;0.30;;;18.00;99.90;;;;;;5053236;28;20797;-74
2022/08/26 04:35:46;;;;;;;0.40;0.30;;;17.90;99.90;;;;;;5052468;28;20444;-73
2022/08/26 04:38:11;;;;;;;0.93;0.73;;;17.90;99.90;;;;;;5052764;28;20417;-74
2022/08/26 04:40:42;;;;;;;0.40;0.30;;;17.80;99.90;;;;;;5053357;28;20453;-74
2022/08/26 04:43:08;;;;;;;1.50;0.80;;;17.90;99.90;;;;;;5053126;28;20751;-73
2022/08/26 04:45:36;;;;;;;0.40;0.20;;;18.00;99.90;;;;;;5035303;28;20386;-74
2022/08/26 04:48:02;;;;;;;0.60;0.50;;;17.80;99.90;;;;;;5035428;28;20386;-74
2022/08/26 04:50:28;;;;;;;0.40;0.30;;;17.80;99.90;;;;;;5052502;28;20407;-74
2022/08/26 04:52:54;;;;;;;0.40;0.20;;;17.80;99.90;;;;;;5064245;28;21019;-74
2022/08/26 04:55:19;;;;;;;0.40;0.40;;;17.80;99.90;;;;;;5029404;28;20415;-73
2022/08/26 04:57:45;;;;;;;0.50;0.50;;;17.80;99.90;;;;;;5048227;28;20389;-74
2022/08/26 05:00:12;;;;;;;0.40;0.30;;;17.80;99.90;;;;;;5052926;28;20439;-73
2022/08/26 05:02:38;;;;;;;0.40;0.20;;;17.80;99.90;;;;;;5052709;28;20382;-74
2022/08/26 05:05:05;;;;;;;0.40;0.30;;;17.80;99.90;;;;;;5052229;28;20385;-74
2022/08/26 05:07:33;;;;;;;0.40;0.30;;;17.90;99.90;;;;;;5052543;28;20393;-73
2022/08/26 05:09:59;;;;;;;0.40;0.40;;;17.90;99.90;;;;;;5034788;28;20393;-74
2022/08/26 05:12:24;;;;;;;0.40;0.30;;;17.90;99.90;;;;;;5039885;28;20387;-74
2022/08/26 05:14:50;;;;;;;0.60;0.60;;;18.00;99.90;;;;;;5050880;28;20397;-74
2022/08/26 05:17:15;;;;;;;0.40;0.40;;;18.00;99.90;;;;;;5052626;28;20381;-74
2022/08/26 05:19:41;;;;;;;0.40;0.20;;;18.20;99.90;;;;;;5052648;28;20405;-73
2022/08/26 05:22:06;;;;;;;0.40;0.30;;;18.20;99.90;;;;;;5052502;28;20882;-73
2022/08/26 05:24:32;;;;;;;0.40;0.30;;;18.30;99.90;;;;;;5052151;28;20381;-73
2022/08/26 05:26:57;;;;;;;0.40;0.20;;;18.30;99.90;;;;;;5052346;28;20523;-74
2022/08/26 05:29:23;;;;;;;0.40;0.30;;;18.30;99.90;;;;;;5052741;28;20416;-73
2022/08/26 05:31:51;;;;;;;0.60;0.60;;;18.40;99.90;;;;;;5034525;28;20790;-75
2022/08/26 05:34:16;;;;;;;0.40;0.20;;;18.30;99.90;;;;;;5052102;28;20385;-74
2022/08/26 05:36:42;;;;;;;0.40;0.30;;;18.40;99.90;;;;;;5052054;28;20410;-74
2022/08/26 05:39:08;;;;;;;0.40;0.30;;;18.40;99.90;;;;;;5052135;28;20790;-73
2022/08/26 05:41:36;;;;;;;0.40;0.30;;;18.50;99.90;;;;;;5034332;28;20394;-73
2022/08/26 05:44:04;;;;;;;0.40;0.30;;;18.50;99.90;;;;;;5051972;28;20450;-73
2022/08/26 05:46:30;;;;;;;0.40;0.30;;;18.70;99.90;;;;;;5051289;28;20476;-74
2022/08/26 05:48:57;;;;;;;0.40;0.30;;;18.80;99.90;;;;;;5048263;28;20491;-74
2022/08/26 05:51:23;;;;;;;0.40;0.30;;;18.80;99.90;;;;;;5055541;28;20595;-74
2022/08/26 05:53:49;;;;;;;0.40;0.30;;;18.80;99.90;;;;;;5035882;28;20501;-74
2022/08/26 05:56:14;;;;;;;0.40;0.20;;;18.80;99.90;;;;;;5056658;28;20498;-74
2022/08/26 05:58:42;;;;;;;0.83;0.83;;;18.80;99.90;;;;;;5050177;28;20425;-74
2022/08/26 06:01:18;;;;;;;0.40;0.22;;;18.80;99.90;;;;;;5054609;28;20415;-74
2022/08/26 06:03:46;;;;;;;0.40;0.20;;;18.90;99.90;;;;;;5051667;28;20983;-73
2022/08/26 06:06:18;;;;;;;0.40;0.20;;;19.10;99.90;;;;;;5052782;28;20517;-74
2022/08/26 06:08:44;;;;;;;0.40;0.20;;;19.20;99.90;;;;;;5067530;28;20405;-73
2022/08/26 06:11:12;;;;;;;0.40;0.30;;;19.20;99.90;;;;;;5050207;28;20478;-73
2022/08/26 06:13:38;;;;;;;0.60;0.60;;;19.30;99.90;;;;;;5035748;28;20750;-72
2022/08/26 06:16:08;;;;;;;0.40;0.30;;;19.30;99.90;;;;;;5062962;28;20418;-74
2022/08/26 06:18:37;;;;;;;0.40;0.20;;;19.50;99.90;;;;;;5047001;28;20790;-71
2022/08/26 06:21:23;;;;;;;0.40;0.30;;;19.60;99.90;;;;;;5040339;28;20968;-72
2022/08/26 06:26:35;;;;;;;0.40;0.30;;;19.80;99.90;;;;;;5038046;28;20928;-73
2022/08/26 06:29:02;;;;;;;0.50;0.40;;;19.90;99.90;;;;;;5049066;28;21000;-73
2022/08/26 06:31:28;;;;;;;0.45;0.43;;;19.90;99.90;;;;;;5044534;28;20400;-74
2022/08/26 06:33:54;;;;;;;0.70;0.60;;;20.00;99.90;;;;;;5053084;28;20397;-74
2022/08/26 06:36:22;;;;;;;0.50;0.50;;;20.10;99.90;;;;;;5031591;28;20575;-74
2022/08/26 06:38:49;;;;;;;0.40;0.20;;;20.20;99.90;;;;;;5036909;28;20541;-75
2022/08/26 06:41:16;;;;;;;0.40;0.20;;;20.30;99.90;;;;;;5056497;28;20404;-73
2022/08/26 06:43:42;;;;;;;0.40;0.30;;;20.40;99.90;;;;;;5031496;28;20813;-74
2022/08/26 06:46:10;;;;;;;0.40;0.20;;;20.50;99.90;;;;;;5013294;28;20395;-74
2022/08/26 06:48:36;;;;;;;0.40;0.30;;;20.60;99.90;;;;;;5034450;28;20466;-74
2022/08/26 06:51:15;;;;;;;0.45;0.38;;;20.60;99.90;;;;;;5049805;28;20903;-74
2022/08/26 06:53:44;;;;;;;0.40;0.30;;;20.70;99.90;;;;;;5054434;28;20407;-74
2022/08/26 06:56:10;;;;;;;0.40;0.30;;;20.70;99.90;;;;;;5052475;28;20421;-74
2022/08/26 06:58:37;;;;;;;0.40;0.30;;;20.70;99.90;;;;;;5049486;28;20414;-74
2022/08/26 07:01:03;;;;;;;0.40;0.20;;;20.80;99.90;;;;;;5041494;28;20405;-73
2022/08/26 07:03:29;;;;;;;0.50;0.30;;;20.90;99.90;;;;;;5042233;28;20399;-75
2022/08/26 07:06:01;;;;;;;0.40;0.30;;;21.00;99.90;;;;;;5062160;28;20403;-74
2022/08/26 07:08:27;;;;;;;0.50;0.40;;;21.10;99.90;;;;;;5062233;28;20441;-74
2022/08/26 07:10:52;;;;;;;0.60;0.60;;;21.20;99.90;;;;;;5055411;28;20409;-74
2022/08/26 07:13:18;;;;;;;0.40;0.30;;;21.30;99.90;;;;;;5050666;28;20409;-74
2022/08/26 07:15:43;;;;;;;0.40;0.30;;;21.50;99.90;;;;;;5056977;28;20404;-74
2022/08/26 07:18:09;;;;;;;0.60;0.60;;;21.60;99.90;;;;;;5055764;28;20397;-72
2022/08/26 07:20:41;;;;;;;0.40;0.30;;;21.60;99.90;;;;;;5039123;28;20387;-74
2022/08/26 07:23:08;;;;;;;0.40;0.30;;;21.80;99.90;;;;;;5058275;28;20522;-74
2022/08/26 07:25:37;;;;;;;0.50;0.40;;;21.90;99.90;;;;;;5052155;28;20403;-74
2022/08/26 07:28:02;;;;;;;1.92;1.55;;;22.10;99.90;;;;;;5070291;28;20391;-75
2022/08/26 07:30:28;;;;;;;0.43;0.32;;;22.20;99.90;;;;;;5070286;28;20383;-74
2022/08/26 07:32:56;;;;;;;0.40;0.30;;;22.40;99.90;;;;;;5051996;28;20388;-74
2022/08/26 07:35:22;;;;;;;0.40;0.30;;;22.60;99.90;;;;;;5030629;28;20467;-75
2022/08/26 07:37:47;;;;;;;0.75;0.75;;;22.80;99.90;;;;;;5042367;28;20391;-74
2022/08/26 07:40:13;;;;;;;0.50;0.50;;;22.80;99.90;;;;;;5056030;28;20830;-74
2022/08/26 07:42:39;;;;;;;0.40;0.30;;;23.00;99.90;;;;;;5046250;28;20772;-73
2022/08/26 07:45:05;;;;;;;0.60;0.50;;;23.10;99.90;;;;;;5049140;28;20387;-74
2022/08/26 07:47:30;;;;;;;0.40;0.30;;;23.30;99.90;;;;;;5048204;28;20415;-74
2022/08/26 07:49:57;;;;;;;0.40;0.30;;;23.40;99.90;;;;;;5058352;28;20392;-75
2022/08/26 07:52:26;;;;;;;0.40;0.30;;;23.60;98.90;;;;;;5068508;28;20394;-74
2022/08/26 07:54:51;;;;;;;0.47;0.38;;;23.70;98.10;;;;;;5070000;28;20754;-75
2022/08/26 07:57:17;;;;;;;0.40;0.30;;;23.80;97.30;;;;;;5070144;28;20440;-74
2022/08/26 07:59:42;;;;;;;0.40;0.20;;;23.90;97.00;;;;;;5070164;28;20390;-73
2022/08/26 08:02:11;;;;;;;0.50;0.47;;;23.90;97.70;;;;;;5045339;28;20397;-75
2022/08/26 08:04:36;;;;;;;0.40;0.28;;;24.00;96.90;;;;;;5049247;28;20392;-75
2022/08/26 08:07:02;;;;;;;0.40;0.30;;;24.10;98.00;;;;;;5034932;28;20445;-75
2022/08/26 08:09:27;;;;;;;0.40;0.20;;;24.10;96.90;;;;;;5062327;28;20763;-74
2022/08/26 08:12:02;;;;;;;0.50;0.40;;;24.20;96.30;;;;;;5046688;28;20471;-73
2022/08/26 08:14:27;;;;;;;0.40;0.40;;;24.30;96.10;;;;;;5031518;28;20391;-74
2022/08/26 08:16:53;;;;;;;1.17;1.05;;;24.40;95.50;;;;;;5046534;28;20381;-75
2022/08/26 08:19:18;;;;;;;0.50;0.50;;;24.40;96.50;;;;;;5057872;28;20424;-75
2022/08/26 08:21:44;;;;;;;0.40;0.30;;;24.50;95.80;;;;;;5031729;28;20460;-75
2022/08/26 08:24:10;;;;;;;0.40;0.30;;;24.50;94.90;;;;;;5049278;28;20883;-74
2022/08/26 08:26:36;;;;;;;0.40;0.28;;;24.60;95.80;;;;;;5047286;28;20433;-75
2022/08/26 08:29:02;;;;;;;0.40;0.20;;;24.70;95.70;;;;;;5031920;28;20760;-74
2022/08/26 08:31:30;;;;;;;0.40;0.30;;;24.60;96.10;;;;;;5049729;28;20381;-74
2022/08/26 08:33:55;;;;;;;0.40;0.30;;;24.60;96.90;;;;;;5049488;28;20522;-72
2022/08/26 08:36:21;;;;;;;0.40;0.20;;;24.80;97.10;;;;;;5049477;28;20456;-74
2022/08/26 08:38:47;;;;;;;0.40;0.28;;;24.80;96.90;;;;;;5049464;28;20381;-76
2022/08/26 08:42:09;;;;;;;0.40;0.30;;;24.80;96.90;;;;;;5051252;28;20405;-76
2022/08/26 08:44:39;;;;;;;0.40;0.20;;;24.80;97.90;;;;;;4982526;28;20385;-76
2022/08/26 08:47:15;;;;;;;0.40;0.30;;;25.00;97.40;;;;;;5052834;28;20450;-76
2022/08/26 08:49:41;;;;;;;0.40;0.40;;;25.00;97.80;;;;;;5035401;28;20392;-76
2022/08/26 08:52:20;;;;;;;0.40;0.30;;;25.00;97.30;;;;;;5035804;28;20475;-75
2022/08/26 08:54:46;;;;;;;0.40;0.30;;;25.10;97.90;;;;;;5052659;28;20413;-75
2022/08/26 08:57:19;;;;;;;0.40;0.20;;;25.10;98.10;;;;;;5035257;28;20385;-74
2022/08/26 08:59:57;;;;;;;0.40;0.30;;;25.10;97.10;;;;;;5053091;28;20390;-74
2022/08/26 09:02:49;;;;;;;0.40;0.30;;;25.10;96.90;;;;;;5052941;28;20470;-72
2022/08/26 09:05:27;;;;;;;0.40;0.30;;;25.20;96.00;;;;;;5024647;28;20412;-73
2022/08/26 09:07:56;;;;;;;0.80;0.80;;;25.30;96.10;;;;;;5052909;28;20393;-74
2022/08/26 09:10:31;;;;;;;0.40;0.30;;;25.40;96.20;;;;;;5052960;28;20409;-76
2022/08/26 09:12:57;;;;;;;0.50;0.40;;;25.50;95.50;;;;;;5052613;28;20449;-73
2022/08/26 09:15:35;;;;;;;0.40;0.30;;;25.50;94.10;;;;;;5052690;28;20497;-74
2022/08/26 09:18:21;;;;;;;0.40;0.30;;;25.40;94.40;;;;;;5030474;28;20492;-74
2022/08/26 09:21:04;;;;;;;0.40;0.20;;;25.40;94.30;;;;;;5044536;28;20403;-74
2022/08/26 09:23:36;;;;;;;0.40;0.30;;;25.40;94.50;;;;;;5046533;28;20752;-77
2022/08/26 09:26:17;;;;;;;0.40;0.30;;;25.20;93.90;;;;;;5055502;28;20405;-75
2022/08/26 09:28:47;;;;;;;0.40;0.30;;;25.40;94.20;;;;;;5050732;28;21000;-74
2022/08/26 09:31:20;;;;;;;0.40;0.30;;;25.40;93.60;;;;;;5046981;28;20766;-73
2022/08/26 09:33:47;;;;;;;0.40;0.20;;;25.40;93.60;;;;;;5058061;28;20403;-75
2022/08/26 09:36:55;;;;;;;0.40;0.30;;;25.30;93.30;;;;;;5056663;28;20792;-75
2022/08/26 09:39:26;;;;;;;0.40;0.40;;;25.20;93.70;;;;;;5047164;28;20455;-76
2022/08/26 09:42:09;;;;;;;0.40;0.30;;;25.40;93.80;;;;;;5014598;28;20925;-75
2022/08/26 09:44:53;;;;;;;0.40;0.30;;;25.50;93.40;;;;;;5032485;28;20398;-75
2022/08/26 09:47:36;;;;;;;0.60;0.60;;;25.50;91.80;;;;;;5032325;28;20864;-75
2022/08/26 09:50:25;;;;;;;0.50;0.50;;;25.60;92.70;;;;;;5031850;28;20474;-75
2022/08/26 09:53:08;;;;;;;0.40;0.30;;;25.80;92.60;;;;;;5031059;28;20387;-76
2022/08/26 09:55:35;;;;;;;0.40;0.20;;;25.90;91.60;;;;;;5032985;28;20404;-76
2022/08/26 09:58:01;;;;;;;0.40;0.20;;;25.80;91.40;;;;;;5034070;28;20417;-76
2022/08/26 10:00:35;;;;;;;0.40;0.28;;;25.80;91.00;;;;;;5046726;28;20418;-75
2022/08/26 10:03:08;;;;;;;0.40;0.30;;;25.80;91.20;;;;;;5031309;28;20865;-74
2022/08/26 10:05:53;;;;;;;0.40;0.30;;;25.90;91.10;;;;;;5031673;28;20410;-75
2022/08/26 10:08:26;;;;;;;0.40;0.20;;;25.90;91.30;;;;;;5032024;28;20391;-75
2022/08/26 10:10:54;;;;;;;0.40;0.30;;;25.90;91.30;;;;;;5031789;28;20444;-75
2022/08/26 10:13:36;;;;;;;0.40;0.20;;;25.90;90.80;;;;;;5031604;28;20391;-76
2022/08/26 10:16:17;;;;;;;0.40;0.30;;;26.00;91.30;;;;;;5031659;28;20670;-76
2022/08/26 10:18:50;;;;;;;0.40;0.25;;;26.00;91.60;;;;;;5014498;28;20388;-75
2022/08/26 10:21:44;;;;;;;0.40;0.30;;;26.00;90.70;;;;;;5048350;28;20448;-75
2022/08/26 10:24:14;;;;;;;0.60;0.60;;;26.30;91.30;;;;;;5034960;28;20409;-75
2022/08/26 10:26:47;;;;;;;0.40;0.30;;;26.30;90.80;;;;;;5035213;28;20490;-76
2022/08/26 10:29:20;;;;;;;0.40;0.20;;;26.40;91.70;;;;;;5047805;28;20403;-76
2022/08/26 10:31:47;;;;;;;0.40;0.30;;;26.40;90.70;;;;;;5049657;28;20401;-75
2022/08/26 10:34:16;;;;;;;0.40;0.20;;;26.40;90.80;;;;;;5054153;28;20470;-75
2022/08/26 10:36:55;;;;;;;0.40;0.20;;;26.40;90.80;;;;;;5049138;28;20424;-75
2022/08/26 10:39:48;;;;;;;0.40;0.30;;;26.40;90.50;;;;;;5035330;28;20405;-75
2022/08/26 10:42:24;;;;;;;0.52;0.50;;;26.60;90.60;;;;;;5047464;28;20402;-74
2022/08/26 10:44:59;;;;;;;0.40;0.25;;;26.50;90.50;;;;;;5047023;28;20468;-74
2022/08/26 10:47:34;;;;;;;0.40;0.30;;;26.50;90.60;;;;;;5048387;28;20414;-75
2022/08/26 10:50:02;;;;;;;0.40;0.20;;;26.50;91.10;;;;;;5035798;28;20395;-75
2022/08/26 10:52:57;;;;;;;0.40;0.30;;;26.60;90.90;;;;;;5044904;28;20435;-75
2022/08/26 10:55:59;;;;;;;0.40;0.20;;;26.80;90.50;;;;;;5044622;28;20415;-75
2022/08/26 10:58:46;;;;;;;0.40;0.20;;;26.70;90.80;;;;;;5042492;28;20399;-73
2022/08/26 11:01:45;;;;;;;0.40;0.22;;;26.90;90.80;;;;;;5032803;28;20405;-74
2022/08/26 11:04:38;;;;;;;0.40;0.20;;;26.70;90.10;;;;;;5023925;28;20395;-74
2022/08/26 11:07:29;;;;;;;0.40;0.30;;;26.70;90.00;;;;;;5035053;28;20391;-73
2022/08/26 11:09:55;;;;;;;0.40;0.20;;;26.90;90.50;;;;;;5018419;28;20403;-73
2022/08/26 11:12:50;;;;;;;0.40;0.30;;;27.00;89.20;;;;;;5030912;28;20414;-74
2022/08/26 11:15:19;;;;;;;0.40;0.30;;;27.10;88.20;;;;;;5015529;28;20421;-74
2022/08/26 11:17:44;;;;;;;0.40;0.20;;;27.10;87.10;;;;;;5055026;28;20736;-75
2022/08/26 11:20:38;;;;;;;0.70;0.50;;;27.20;86.60;;;;;;5040276;28;20393;-75
2022/08/26 11:23:19;;;;;;;0.40;0.40;;;27.30;86.40;;;;;;5040319;28;20406;-74
2022/08/26 11:26:00;;;;;;;0.40;0.20;;;27.50;87.50;;;;;;5039072;28;20632;-75
2022/08/26 11:28:46;;;;;;;0.40;0.30;;;27.40;88.60;;;;;;5040194;28;20936;-74
2022/08/26 11:31:24;;;;;;;0.40;0.30;;;27.40;88.10;;;;;;5042577;28;20437;-72
2022/08/26 11:34:00;;;;;;;0.40;0.30;;;27.30;87.70;;;;;;5038744;28;20398;-74
2022/08/26 11:36:55;;;;;;;0.50;0.50;;;27.20;87.50;;;;;;5042604;28;20446;-74
2022/08/26 11:39:23;;;;;;;0.40;0.20;;;27.20;86.50;;;;;;5045573;28;20433;-74
2022/08/26 11:41:51;;;;;;;0.40;0.20;;;27.30;86.60;;;;;;5046516;28;20420;-75
2022/08/26 11:44:24;;;;;;;0.40;0.40;;;27.00;85.80;;;;;;5048866;28;20393;-74
2022/08/26 11:46:55;;;;;;;0.40;0.20;;;27.30;85.20;;;;;;5051998;28;20408;-74
2022/08/26 11:49:21;;;;;;;0.40;0.30;;;27.30;87.80;;;;;;5046818;28;20417;-75
2022/08/26 11:51:47;;;;;;;0.40;0.20;;;27.40;85.90;;;;;;5066701;28;20379;-75
2022/08/26 11:54:19;;;;;;;0.40;0.30;;;27.40;84.90;;;;;;5048151;28;20432;-74
2022/08/26 11:56:48;;;;;;;0.40;0.20;;;27.80;86.80;;;;;;5032004;28;20406;-75
2022/08/26 11:59:19;;;;;;;0.50;0.50;;;27.90;84.70;;;;;;5044231;28;20489;-75
2022/08/26 12:01:49;;;;;;;0.40;0.27;;;28.00;86.40;;;;;;5056165;28;20976;-75
2022/08/26 12:04:39;;;;;;;0.40;0.30;;;27.80;84.50;;;;;;5047047;28;20391;-74
2022/08/26 12:07:07;;;;;;;0.40;0.20;;;28.10;82.00;;;;;;5032770;28;20959;-74
2022/08/26 12:09:36;;;;;;;0.40;0.30;;;28.20;84.00;;;;;;5037309;28;20461;-74
2022/08/26 12:12:31;;;;;;;0.40;0.20;;;28.30;81.70;;;;;;5032547;28;20515;-74
2022/08/26 12:15:06;;;;;;;0.40;0.20;;;28.70;82.20;;;;;;5026750;28;20415;-74
2022/08/26 12:17:31;;;;;;;0.40;0.30;;;28.50;83.80;;;;;;5053868;28;20840;-73
2022/08/26 12:19:57;;;;;;;0.40;0.20;;;28.70;83.40;;;;;;5041018;28;20491;-76
2022/08/26 12:22:26;;;;;;;0.40;0.30;;;28.80;82.00;;;;;;5044894;28;20489;-74
2022/08/26 12:24:55;;;;;;;0.40;0.20;;;28.80;80.10;;;;;;5056793;28;20394;-74
2022/08/26 12:27:23;;;;;;;0.40;0.30;;;29.10;78.80;;;;;;5019376;28;20387;-74
2022/08/26 12:30:13;;;;;;;0.40;0.20;;;29.10;78.00;;;;;;5049474;28;20415;-74
2022/08/26 12:32:45;;;;;;;0.47;0.35;;;28.80;78.20;;;;;;5042848;28;20393;-74
2022/08/26 12:35:13;;;;;;;0.40;0.20;;;29.30;78.00;;;;;;5043036;28;20413;-75
2022/08/26 12:37:46;;;;;;;0.40;0.30;;;29.50;74.50;;;;;;5061011;28;20400;-74
2022/08/26 12:40:31;;;;;;;0.40;0.30;;;30.10;71.80;;;;;;5042342;28;20786;-74
2022/08/26 12:42:59;;;;;;;0.40;0.30;;;29.80;70.10;;;;;;5045015;28;20416;-74
2022/08/26 12:45:28;;;;;;;0.40;0.30;;;29.80;70.10;;;;;;5027286;28;20393;-74
2022/08/26 12:47:57;;;;;;;0.40;0.20;;;30.00;70.90;;;;;;5036883;28;20477;-74
2022/08/26 12:50:29;;;;;;;0.40;0.20;;;30.20;71.00;;;;;;5031464;28;20398;-74
2022/08/26 12:52:57;;;;;;;0.40;0.20;;;30.20;71.00;;;;;;5062912;28;20426;-74
2022/08/26 12:55:44;;;;;;;0.40;0.20;;;30.50;70.40;;;;;;5029121;28;20403;-75
2022/08/26 12:58:12;;;;;;;0.40;0.30;;;30.10;68.20;;;;;;5033874;28;20463;-74
2022/08/26 13:00:40;;;;;;;0.43;0.33;;;29.80;71.10;;;;;;5039248;28;20553;-74
2022/08/26 13:03:27;;;;;;;0.40;0.20;;;30.40;72.00;;;;;;5046213;28;20375;-74
2022/08/26 13:05:53;;;;;;;0.40;0.20;;;30.60;69.40;;;;;;5043029;28;20406;-74
2022/08/26 13:08:26;;;;;;;0.80;0.70;;;30.00;68.60;;;;;;5026248;28;20395;-76
2022/08/26 13:11:06;;;;;;;0.40;0.20;;;30.00;68.40;;;;;;5036470;28;20413;-75
2022/08/26 13:13:32;;;;;;;0.40;0.30;;;30.30;69.60;;;;;;5038170;28;20538;-75